Burt, North Dakota
Current Conditions -  °F | °C
As of 7:53 AM on Wednesday 22 Oct 2014 (Local Time) from KHEI Reporting Station
Clear Clear  
Wind Chill: 41°   Ceiling: Unl
Heat Index: 47°   Visibility: 10mi
Dew Point: 40°   Wind: 15mph
Humidity: 77%   Direction: 280°W
Pressure: 29.9"   Gusts: NA
Location:  46.4214°N, 102.296°W
Report Text: KHEI 221353Z AUTO 28013KT 10SM CLR 08/04 A2990 RMK AO2 SLP124 T00830044
Loading
Personal Weather Stations






























Interactive Weather Map
Tropical Storm Tracking
New forecast layout! Learn more

10-Day Weather Forecast

Advertisements
Track Severe Weather on mobile